createdAt,value
2019-05-17T00:00:57.472Z,0.00
2019-05-17T00:01:57.719Z,0.00
2019-05-17T00:02:57.223Z,0.00
2019-05-17T00:03:57.035Z,0.00
2019-05-17T00:04:57.040Z,0.00
2019-05-17T00:05:57.176Z,0.00
2019-05-17T00:06:57.177Z,0.00
2019-05-17T00:07:57.057Z,0.00
2019-05-17T00:08:57.071Z,0.00
2019-05-17T00:09:57.249Z,0.00
2019-05-17T00:10:57.181Z,0.00
2019-05-17T00:11:57.084Z,0.00
2019-05-17T00:12:57.086Z,0.00
2019-05-17T00:13:57.156Z,0.00
2019-05-17T00:14:57.110Z,0.00
2019-05-17T00:15:57.115Z,0.00
2019-05-17T00:16:57.411Z,0.00
2019-05-17T00:17:57.204Z,0.00
2019-05-17T00:18:57.124Z,0.00
2019-05-17T00:19:57.200Z,0.00
2019-05-17T00:20:57.170Z,0.00
2019-05-17T00:21:57.156Z,0.00
2019-05-17T00:22:57.469Z,0.00
2019-05-17T00:23:57.340Z,0.00
2019-05-17T00:24:57.165Z,0.00
2019-05-17T00:25:57.176Z,0.00
2019-05-17T00:26:58.629Z,0.00
2019-05-17T00:27:57.200Z,0.00
2019-05-17T00:28:57.192Z,0.00
2019-05-17T00:29:57.276Z,0.00
2019-05-17T00:30:57.288Z,0.00
2019-05-17T00:31:57.214Z,0.00
2019-05-17T00:32:57.218Z,0.00
2019-05-17T00:33:57.224Z,0.00
2019-05-17T00:34:57.232Z,0.00
2019-05-17T00:35:57.260Z,0.00
2019-05-17T00:36:57.486Z,0.00
2019-05-17T00:37:57.254Z,0.00
2019-05-17T00:38:57.259Z,0.00
2019-05-17T00:39:57.267Z,0.00
2019-05-17T00:40:57.275Z,0.00
2019-05-17T00:41:57.431Z,0.00
2019-05-17T00:42:57.288Z,0.00
2019-05-17T00:43:57.298Z,0.00
2019-05-17T00:44:57.299Z,0.00
2019-05-17T00:45:57.554Z,0.00
2019-05-17T00:46:58.827Z,0.00
2019-05-17T00:47:57.372Z,0.00
2019-05-17T00:48:57.426Z,0.00
2019-05-17T00:49:57.333Z,0.00
2019-05-17T00:51:02.031Z,0.00
2019-05-17T00:51:57.345Z,0.00
2019-05-17T00:52:57.353Z,0.00
2019-05-17T00:53:57.365Z,0.00
2019-05-17T00:54:57.369Z,0.00
2019-05-17T00:55:57.458Z,0.00
2019-05-17T00:56:57.374Z,0.00
2019-05-17T00:57:57.375Z,0.00
2019-05-17T00:58:57.386Z,0.00
2019-05-17T00:59:57.393Z,0.00
2019-05-17T01:00:57.425Z,0.00
2019-05-17T01:01:57.407Z,0.00
2019-05-17T01:02:57.462Z,0.00
2019-05-17T01:03:57.416Z,0.00
2019-05-17T01:04:57.426Z,0.00
2019-05-17T01:06:57.444Z,0.00
2019-05-17T01:07:57.445Z,0.00
2019-05-17T01:09:01.905Z,0.00
2019-05-17T01:09:57.459Z,0.00
2019-05-17T01:10:57.467Z,0.00
2019-05-17T01:11:57.470Z,0.00
2019-05-17T01:12:57.665Z,0.00
2019-05-17T01:13:58.737Z,0.00
2019-05-17T01:14:58.287Z,0.00
2019-05-17T01:15:57.503Z,0.00
2019-05-17T01:16:57.517Z,0.00
2019-05-17T01:17:57.509Z,0.00
2019-05-17T01:18:57.518Z,0.00
2019-05-17T01:19:57.568Z,0.00
2019-05-17T01:20:57.531Z,0.00
2019-05-17T01:21:57.533Z,0.00
2019-05-17T01:22:57.555Z,0.00
2019-05-17T01:23:57.561Z,0.00
2019-05-17T01:24:57.598Z,0.00
2019-05-17T01:25:57.557Z,0.00
2019-05-17T01:26:57.569Z,0.00
2019-05-17T01:27:57.576Z,0.00
2019-05-17T01:28:57.592Z,0.00
2019-05-17T01:29:57.593Z,0.00
2019-05-17T01:30:57.597Z,0.00
2019-05-17T01:31:57.610Z,0.00
2019-05-17T01:32:57.598Z,0.00
2019-05-17T01:33:57.615Z,0.00
2019-05-17T01:34:57.619Z,0.00
2019-05-17T01:35:57.638Z,0.00
2019-05-17T01:36:57.634Z,0.00
2019-05-17T01:37:57.641Z,0.00
2019-05-17T01:38:57.824Z,0.00
2019-05-17T01:39:57.652Z,0.00
2019-05-17T01:40:57.668Z,0.00
2019-05-17T01:41:57.670Z,0.00
2019-05-17T01:42:58.168Z,0.00
2019-05-17T01:43:57.678Z,0.00
2019-05-17T01:44:57.686Z,0.00
2019-05-17T01:45:57.694Z,0.00
2019-05-17T01:46:57.695Z,0.00
2019-05-17T01:47:57.702Z,0.00
2019-05-17T01:48:57.884Z,0.00
2019-05-17T01:49:57.769Z,0.00
2019-05-17T01:50:57.729Z,0.00
2019-05-17T01:51:57.775Z,0.00
2019-05-17T01:52:57.727Z,0.00
2019-05-17T01:53:57.748Z,0.00
2019-05-17T01:54:57.746Z,0.00
2019-05-17T01:55:57.756Z,0.00
2019-05-17T01:56:57.761Z,0.00
2019-05-17T01:57:57.765Z,0.00
2019-05-17T01:58:57.768Z,0.00
2019-05-17T01:59:57.779Z,0.00
2019-05-17T02:00:57.787Z,0.00
2019-05-17T02:01:57.791Z,0.00
2019-05-17T02:02:57.879Z,0.00
2019-05-17T02:03:57.802Z,0.00
2019-05-17T02:04:57.813Z,0.00
2019-05-17T02:05:57.816Z,0.00
2019-05-17T02:06:57.833Z,0.00
2019-05-17T02:07:57.820Z,0.00
2019-05-17T02:08:57.841Z,0.00
2019-05-17T02:09:57.845Z,0.00
2019-05-17T02:10:57.849Z,0.00
2019-05-17T02:11:57.934Z,0.00
2019-05-17T02:12:57.859Z,0.00
2019-05-17T02:13:57.867Z,0.00
2019-05-17T02:14:57.871Z,0.00
2019-05-17T02:15:57.889Z,0.00
2019-05-17T02:16:57.892Z,0.00
2019-05-17T02:17:57.893Z,0.00
2019-05-17T02:18:57.984Z,0.00
2019-05-17T02:19:58.060Z,0.00
2019-05-17T02:20:58.104Z,0.00
2019-05-17T02:21:58.163Z,0.00
2019-05-17T02:22:57.975Z,0.00
2019-05-17T02:23:58.078Z,0.00
2019-05-17T02:24:57.998Z,0.00
2019-05-17T02:25:58.164Z,0.00
2019-05-17T02:26:57.948Z,0.00
2019-05-17T02:27:57.949Z,0.00
2019-05-17T02:28:57.961Z,0.00
2019-05-17T02:29:57.966Z,0.00
2019-05-17T02:30:57.982Z,0.00
2019-05-17T02:31:57.985Z,0.00
2019-05-17T02:32:57.987Z,0.00
2019-05-17T02:33:57.996Z,0.00
2019-05-17T02:34:58.006Z,0.00
2019-05-17T02:35:58.008Z,0.00
2019-05-17T02:36:58.019Z,0.00
2019-05-17T02:37:58.019Z,0.00
2019-05-17T02:38:58.024Z,0.00
2019-05-17T02:40:03.075Z,0.00
2019-05-17T02:40:58.036Z,0.00
2019-05-17T02:41:58.050Z,0.00
2019-05-17T02:42:58.063Z,0.00
2019-05-17T02:43:58.066Z,0.00
2019-05-17T02:44:58.066Z,0.00
2019-05-17T02:45:58.069Z,0.00
2019-05-17T02:46:58.079Z,0.00
2019-05-17T02:47:58.083Z,0.00
2019-05-17T02:48:58.083Z,0.00
2019-05-17T02:49:58.092Z,0.00
2019-05-17T02:50:58.100Z,0.00
2019-05-17T02:51:58.110Z,0.00
2019-05-17T02:52:58.110Z,0.00
2019-05-17T02:53:58.117Z,0.00
2019-05-17T02:54:58.132Z,0.00
2019-05-17T02:55:58.133Z,0.00
2019-05-17T02:56:58.144Z,0.00
2019-05-17T02:57:58.152Z,0.00
2019-05-17T02:58:58.154Z,0.00
2019-05-17T02:59:58.158Z,0.00
2019-05-17T03:00:58.164Z,0.00
2019-05-17T04:23:53.749Z,56.25
2019-05-17T04:27:53.392Z,67.50
2019-05-17T04:29:53.148Z,67.50
2019-05-17T04:30:53.866Z,67.50
2019-05-17T04:31:55.336Z,73.13
2019-05-17T04:32:56.834Z,73.13
2019-05-17T04:33:49.839Z,73.13
2019-05-17T04:34:53.351Z,73.13
2019-05-17T04:36:52.100Z,73.13
2019-05-17T04:37:48.858Z,78.75
2019-05-17T04:38:48.335Z,73.13
2019-05-17T04:39:52.414Z,78.75
2019-05-17T04:40:53.641Z,78.75
2019-05-17T04:41:54.808Z,84.38
2019-05-17T04:42:54.854Z,84.38
2019-05-17T04:43:52.929Z,90.00
2019-05-17T04:44:52.636Z,90.00
2019-05-17T04:45:53.248Z,90.00
2019-05-17T04:46:48.859Z,101.25
2019-05-17T04:47:52.684Z,101.25
2019-05-17T04:48:53.456Z,106.88
2019-05-17T04:49:53.312Z,112.50
2019-05-17T04:50:53.520Z,112.50
2019-05-17T04:51:52.484Z,106.88
2019-05-17T04:52:53.341Z,112.50
2019-05-17T04:53:48.859Z,118.13
2019-05-17T04:54:53.357Z,118.13
2019-05-17T04:55:49.347Z,123.75
2019-05-17T04:56:54.862Z,135.00
2019-05-17T04:57:53.051Z,151.88
2019-05-17T04:58:50.229Z,151.88
2019-05-17T04:59:52.184Z,140.63
2019-05-17T05:00:48.344Z,140.63
2019-05-17T05:01:48.862Z,146.25
2019-05-17T05:02:47.852Z,174.38
2019-05-17T05:03:48.880Z,185.63
2019-05-17T05:04:48.366Z,196.88
2019-05-17T05:05:53.172Z,196.88
2019-05-17T05:06:52.339Z,191.25
2019-05-17T05:07:47.855Z,208.13
2019-05-17T05:08:48.865Z,213.75
2019-05-17T05:09:47.845Z,208.13
2019-05-17T05:10:47.864Z,213.75
2019-05-17T05:11:57.023Z,241.88
2019-05-17T05:12:48.867Z,225.00
2019-05-17T05:13:47.874Z,258.75
2019-05-17T05:14:47.885Z,258.75
2019-05-17T05:15:47.842Z,253.13
2019-05-17T05:16:47.913Z,247.50
2019-05-17T05:17:47.857Z,247.50
2019-05-17T05:18:47.226Z,253.13
2019-05-17T05:19:47.862Z,253.13
2019-05-17T05:20:47.248Z,253.13
2019-05-17T05:21:47.261Z,241.88
2019-05-17T05:22:47.257Z,236.25
2019-05-17T05:23:47.275Z,225.00
2019-05-17T05:24:47.278Z,225.00
2019-05-17T05:25:47.283Z,247.50
2019-05-17T05:26:47.300Z,253.13
2019-05-17T05:27:47.298Z,253.13
2019-05-17T05:28:49.623Z,258.75
2019-05-17T05:29:47.311Z,225.00
2019-05-17T05:30:47.317Z,230.63
2019-05-17T05:31:47.330Z,208.13
2019-05-17T05:32:47.340Z,202.50
2019-05-17T05:33:47.342Z,208.13
2019-05-17T05:34:47.355Z,208.13
2019-05-17T05:35:47.360Z,213.75
2019-05-17T05:36:47.358Z,219.38
2019-05-17T05:37:47.369Z,225.00
2019-05-17T05:38:47.375Z,219.38
2019-05-17T05:39:47.382Z,219.38
2019-05-17T05:40:47.397Z,213.75
2019-05-17T05:41:47.400Z,208.13
2019-05-17T05:42:47.408Z,208.13
2019-05-17T05:43:47.418Z,208.13
2019-05-17T05:44:47.425Z,213.75
2019-05-17T05:45:47.430Z,219.38
2019-05-17T05:46:47.442Z,213.75
2019-05-17T05:47:47.449Z,208.13
2019-05-17T05:48:47.452Z,208.13
2019-05-17T05:49:47.462Z,219.38
2019-05-17T05:50:47.473Z,219.38
2019-05-17T05:51:47.466Z,213.75
2019-05-17T05:52:47.482Z,208.13
2019-05-17T05:53:47.491Z,213.75
2019-05-17T05:54:47.497Z,230.63
2019-05-17T05:55:47.507Z,236.25
2019-05-17T05:56:47.510Z,236.25
2019-05-17T05:57:47.519Z,241.88
2019-05-17T05:58:47.527Z,241.88
2019-05-17T05:59:47.538Z,241.88
2019-05-17T06:00:47.545Z,241.88
2019-05-17T06:01:47.553Z,241.88
2019-05-17T06:02:47.556Z,253.13
2019-05-17T06:03:47.557Z,253.13
2019-05-17T06:04:47.580Z,258.75
2019-05-17T06:05:47.582Z,258.75
2019-05-17T06:06:47.587Z,270.00
2019-05-17T06:07:47.598Z,292.50
2019-05-17T06:08:47.601Z,298.13
2019-05-17T06:09:47.618Z,315.00
2019-05-17T06:10:47.617Z,315.00
2019-05-17T06:11:47.628Z,303.75
2019-05-17T06:12:47.645Z,303.75
2019-05-17T06:13:47.651Z,292.50
2019-05-17T06:14:47.658Z,303.75
2019-05-17T06:15:47.660Z,326.25
2019-05-17T06:16:47.838Z,365.63
2019-05-17T06:17:47.672Z,360.00
2019-05-17T06:18:47.697Z,376.88
2019-05-17T06:19:47.693Z,354.38
2019-05-17T06:20:47.695Z,331.88
2019-05-17T06:21:47.707Z,337.50
2019-05-17T06:22:47.715Z,399.38
2019-05-17T06:23:47.725Z,326.25
2019-05-17T06:24:47.732Z,320.63
2019-05-17T06:25:47.746Z,320.63
2019-05-17T06:26:47.763Z,326.25
2019-05-17T06:27:47.760Z,337.50
2019-05-17T06:28:47.767Z,326.25
2019-05-17T06:29:47.783Z,337.50
2019-05-17T06:30:47.787Z,320.63
2019-05-17T06:31:47.797Z,320.63
2019-05-17T06:32:47.834Z,315.00
2019-05-17T06:33:47.819Z,292.50
2019-05-17T06:34:47.835Z,281.25
2019-05-17T06:35:47.848Z,275.63
2019-05-17T06:36:47.843Z,270.00
2019-05-17T06:37:47.853Z,264.38
2019-05-17T06:38:47.856Z,258.75
2019-05-17T06:39:47.931Z,258.75
2019-05-17T06:40:47.875Z,253.13
2019-05-17T06:41:47.889Z,258.75
2019-05-17T06:42:47.893Z,253.13
2019-05-17T06:43:47.897Z,264.38
2019-05-17T06:44:47.917Z,264.38
2019-05-17T06:45:47.924Z,253.13
2019-05-17T06:46:47.927Z,253.13
2019-05-17T06:47:47.932Z,241.88
2019-05-17T06:48:47.938Z,236.25
2019-05-17T06:49:50.516Z,236.25
2019-05-17T06:50:47.960Z,230.63
2019-05-17T06:51:48.068Z,230.63
2019-05-17T06:52:47.976Z,225.00
2019-05-17T06:53:47.996Z,225.00
2019-05-17T06:54:47.993Z,230.63
2019-05-17T06:55:47.997Z,230.63
2019-05-17T06:56:48.022Z,230.63
2019-05-17T06:57:48.035Z,225.00
2019-05-17T06:58:48.028Z,225.00
2019-05-17T06:59:48.038Z,236.25
2019-05-17T07:00:49.774Z,225.00
2019-05-17T07:01:50.271Z,230.63
2019-05-17T07:02:49.803Z,241.88
2019-05-17T07:03:49.527Z,241.88
2019-05-17T07:04:48.117Z,241.88
2019-05-17T07:05:50.098Z,241.88
2019-05-17T07:06:49.529Z,236.25
2019-05-17T07:07:49.821Z,230.63
2019-05-17T07:08:49.567Z,225.00
2019-05-17T07:09:49.660Z,236.25
2019-05-17T07:10:50.125Z,241.88
2019-05-17T07:11:48.184Z,247.50
2019-05-17T07:12:55.963Z,247.50
2019-05-17T07:13:49.620Z,247.50
2019-05-17T07:14:50.553Z,241.88
2019-05-17T07:15:50.906Z,230.63
2019-05-17T07:16:50.083Z,225.00
2019-05-17T07:17:50.278Z,219.38
2019-05-17T07:18:49.422Z,219.38
2019-05-17T07:19:50.586Z,225.00
2019-05-17T07:20:50.211Z,225.00
2019-05-17T07:21:49.455Z,230.63
2019-05-17T07:22:50.543Z,241.88
2019-05-17T07:23:49.894Z,247.50
2019-05-17T07:24:50.258Z,258.75
2019-05-17T07:25:50.278Z,264.38
2019-05-17T07:26:49.800Z,275.63
2019-05-17T07:27:50.324Z,292.50
2019-05-17T07:28:49.806Z,303.75
2019-05-17T07:29:49.703Z,320.63
2019-05-17T07:30:50.368Z,320.63
2019-05-17T07:31:49.784Z,320.63
2019-05-17T07:32:49.803Z,337.50
2019-05-17T07:33:50.367Z,365.63
2019-05-17T07:34:50.186Z,421.88
2019-05-17T07:35:50.211Z,472.50
2019-05-17T07:36:50.250Z,495.00
2019-05-17T07:37:50.150Z,500.63
2019-05-17T07:38:50.514Z,495.00
2019-05-17T07:40:00.487Z,483.75
2019-05-17T07:40:50.178Z,450.00
2019-05-17T07:41:49.405Z,410.63
2019-05-17T07:42:50.079Z,382.50
2019-05-17T07:43:49.788Z,365.63
2019-05-17T07:44:49.653Z,354.38
2019-05-17T07:45:49.645Z,348.75
2019-05-17T07:46:51.698Z,343.13
2019-05-17T07:47:49.439Z,343.13
2019-05-17T07:48:49.744Z,343.13
2019-05-17T07:49:49.454Z,360.00
2019-05-17T07:50:50.438Z,360.00
2019-05-17T07:51:50.267Z,376.88
2019-05-17T07:52:49.972Z,382.50
2019-05-17T07:53:49.538Z,450.00
2019-05-17T07:54:50.845Z,523.13
2019-05-17T07:55:50.544Z,585.00
2019-05-17T07:56:50.542Z,613.13
2019-05-17T07:57:49.596Z,601.88
2019-05-17T07:58:49.494Z,585.00
2019-05-17T07:59:50.777Z,545.63
2019-05-17T08:00:51.266Z,489.38
2019-05-17T08:01:50.295Z,433.13
2019-05-17T08:02:50.496Z,365.63
2019-05-17T08:03:50.099Z,303.75
2019-05-17T08:04:50.134Z,270.00
2019-05-17T08:05:50.591Z,264.38
2019-05-17T08:06:50.491Z,292.50
2019-05-17T08:07:50.012Z,326.25
2019-05-17T08:08:50.151Z,343.13
2019-05-17T08:09:50.696Z,365.63
2019-05-17T08:10:50.954Z,371.25
2019-05-17T08:11:50.183Z,354.38
2019-05-17T08:12:49.768Z,337.50
2019-05-17T08:13:50.438Z,320.63
2019-05-17T08:14:50.262Z,292.50
2019-05-17T08:15:50.180Z,264.38
2019-05-17T08:16:50.178Z,270.00
2019-05-17T08:17:50.227Z,292.50
2019-05-17T08:18:49.659Z,303.75
2019-05-17T08:19:49.837Z,303.75
2019-05-17T08:20:50.145Z,315.00
2019-05-17T08:21:50.221Z,303.75
2019-05-17T08:22:50.234Z,292.50
2019-05-17T08:23:50.542Z,281.25
2019-05-17T08:24:49.401Z,264.38
2019-05-17T08:25:53.743Z,247.50
2019-05-17T08:26:50.262Z,225.00
2019-05-17T08:27:50.373Z,208.13
2019-05-17T08:28:49.940Z,191.25
2019-05-17T08:29:49.884Z,180.00
2019-05-17T08:30:50.132Z,174.38
2019-05-17T08:31:49.687Z,174.38
2019-05-17T08:32:50.470Z,163.13
2019-05-17T08:33:49.797Z,146.25
2019-05-17T08:34:51.336Z,140.63
2019-05-17T08:35:49.477Z,135.00
2019-05-17T08:36:49.885Z,140.63
2019-05-17T08:37:49.881Z,146.25
2019-05-17T08:38:50.165Z,157.50
2019-05-17T08:39:50.500Z,163.13
2019-05-17T08:40:50.995Z,168.75
2019-05-17T08:41:49.743Z,180.00
2019-05-17T08:42:49.877Z,202.50
2019-05-17T08:43:51.137Z,213.75
2019-05-17T08:44:49.817Z,225.00
2019-05-17T08:45:50.198Z,253.13
2019-05-17T08:46:50.099Z,275.63
2019-05-17T08:47:50.023Z,320.63
2019-05-17T08:48:49.487Z,343.13
2019-05-17T08:49:49.666Z,348.75
2019-05-17T08:50:49.505Z,348.75
2019-05-17T08:51:50.030Z,343.13
2019-05-17T08:52:49.469Z,320.63
2019-05-17T08:53:49.340Z,320.63
2019-05-17T08:54:49.585Z,309.38
2019-05-17T08:55:50.047Z,286.88
2019-05-17T08:56:50.377Z,275.63
2019-05-17T08:57:50.054Z,275.63
2019-05-17T08:58:49.819Z,286.88
2019-05-17T08:59:49.750Z,320.63
2019-05-17T09:00:50.473Z,292.50
2019-05-17T09:01:50.570Z,275.63
2019-05-17T09:02:50.026Z,275.63
2019-05-17T09:03:50.596Z,281.25
2019-05-17T09:04:49.778Z,286.88
2019-05-17T09:05:52.595Z,270.00
2019-05-17T09:06:50.435Z,258.75
2019-05-17T09:07:49.389Z,258.75
2019-05-17T09:08:50.015Z,270.00
2019-05-17T09:09:50.109Z,275.63
2019-05-17T09:10:50.452Z,292.50
2019-05-17T09:11:50.137Z,281.25
2019-05-17T09:12:50.225Z,264.38
2019-05-17T09:13:58.002Z,264.38
2019-05-17T09:14:49.661Z,258.75
2019-05-17T09:15:49.555Z,241.88
2019-05-17T09:16:50.474Z,230.63
2019-05-17T09:17:49.863Z,208.13
2019-05-17T09:18:50.182Z,202.50
2019-05-17T09:19:51.002Z,196.88
2019-05-17T09:20:49.610Z,208.13
2019-05-17T09:21:50.334Z,236.25
2019-05-17T09:22:51.026Z,270.00
2019-05-17T09:23:50.371Z,286.88
2019-05-17T09:24:49.970Z,309.38
2019-05-17T09:25:50.182Z,337.50
2019-05-17T09:26:49.354Z,331.88
2019-05-17T09:27:50.100Z,326.25
2019-05-17T09:28:49.924Z,298.13
2019-05-17T09:29:49.746Z,264.38
2019-05-17T09:30:50.748Z,230.63
2019-05-17T09:31:50.483Z,208.13
2019-05-17T09:32:50.380Z,191.25
2019-05-17T09:33:49.710Z,174.38
2019-05-17T09:34:49.805Z,168.75
2019-05-17T09:35:49.987Z,157.50
2019-05-17T09:36:49.711Z,151.88
2019-05-17T09:37:49.956Z,168.75
2019-05-17T09:38:49.547Z,196.88
2019-05-17T09:39:49.418Z,241.88
2019-05-17T09:40:50.534Z,320.63
2019-05-17T09:41:50.314Z,450.00
2019-05-17T09:42:49.955Z,579.38
2019-05-17T09:43:49.763Z,714.38
2019-05-17T09:44:49.753Z,697.50
2019-05-17T09:45:50.698Z,675.00
2019-05-17T09:46:50.405Z,686.25
2019-05-17T09:47:50.532Z,691.88
2019-05-17T09:48:50.470Z,793.13
2019-05-17T09:50:50.458Z,545.63
2019-05-17T09:51:49.738Z,421.88
2019-05-17T09:52:49.662Z,365.63
2019-05-17T09:53:49.736Z,388.13
2019-05-17T09:54:50.493Z,450.00
2019-05-17T09:55:49.921Z,466.88
2019-05-17T09:56:49.780Z,410.63
2019-05-17T09:57:49.825Z,360.00
2019-05-17T09:58:49.633Z,343.13
2019-05-17T09:59:49.694Z,315.00
2019-05-17T10:00:49.648Z,281.25
2019-05-17T10:01:49.594Z,264.38
2019-05-17T10:02:50.770Z,264.38
2019-05-17T10:03:50.650Z,275.63
2019-05-17T10:04:50.241Z,286.88
2019-05-17T10:06:51.359Z,253.13
2019-05-17T10:07:50.623Z,230.63
2019-05-17T10:08:49.704Z,213.75
2019-05-17T10:09:50.216Z,191.25
2019-05-17T10:11:04.170Z,180.00
2019-05-17T10:11:49.670Z,163.13
2019-05-17T10:12:49.963Z,157.50
2019-05-17T10:13:49.987Z,168.75
2019-05-17T10:14:49.948Z,185.63
2019-05-17T10:15:50.160Z,202.50
2019-05-17T10:16:49.712Z,213.75
2019-05-17T10:17:49.717Z,241.88
2019-05-17T10:18:49.731Z,275.63
2019-05-17T10:19:49.744Z,320.63
2019-05-17T10:20:50.648Z,365.63
2019-05-17T10:21:49.763Z,405.00
2019-05-17T10:22:50.375Z,421.88
2019-05-17T10:23:49.991Z,405.00
2019-05-17T10:24:49.809Z,365.63
2019-05-17T10:25:49.785Z,331.88
2019-05-17T10:26:49.960Z,298.13
2019-05-17T10:27:49.946Z,281.25
2019-05-17T10:28:51.654Z,275.63
2019-05-17T10:29:50.226Z,281.25
2019-05-17T10:30:52.269Z,292.50
2019-05-17T10:31:50.471Z,326.25
2019-05-17T10:32:50.483Z,371.25
2019-05-17T10:33:49.852Z,438.75
2019-05-17T10:34:49.874Z,517.50
2019-05-17T10:35:49.871Z,613.13
2019-05-17T10:36:50.650Z,703.13
2019-05-17T10:37:50.577Z,736.88
2019-05-17T10:38:50.306Z,703.13
2019-05-17T10:39:50.344Z,686.25
2019-05-17T10:40:50.226Z,675.00
2019-05-17T10:41:50.152Z,635.63
2019-05-17T10:42:50.152Z,601.88
2019-05-17T10:43:50.251Z,585.00
2019-05-17T10:44:51.415Z,562.50
2019-05-17T10:45:49.969Z,528.75
2019-05-17T10:46:49.966Z,500.63
2019-05-17T10:47:50.415Z,466.88
2019-05-17T10:48:50.220Z,421.88
2019-05-17T10:49:50.011Z,393.75
2019-05-17T10:50:50.019Z,365.63
2019-05-17T10:51:50.023Z,337.50
2019-05-17T10:52:50.046Z,309.38
2019-05-17T10:53:51.343Z,292.50
2019-05-17T10:54:50.062Z,281.25
2019-05-17T10:55:50.061Z,281.25
2019-05-17T10:56:50.306Z,281.25
2019-05-17T10:57:50.213Z,292.50
2019-05-17T10:58:50.125Z,309.38
2019-05-17T10:59:50.100Z,331.88
2019-05-17T11:00:50.301Z,348.75
2019-05-17T11:01:50.303Z,360.00
2019-05-17T11:02:50.483Z,365.63
2019-05-17T11:03:50.392Z,360.00
2019-05-17T11:04:50.691Z,348.75
2019-05-17T11:05:50.416Z,337.50
2019-05-17T11:06:50.234Z,331.88
2019-05-17T11:07:50.674Z,337.50
2019-05-17T11:08:50.309Z,348.75
2019-05-17T11:09:50.849Z,348.75
2019-05-17T11:10:50.361Z,326.25
2019-05-17T11:11:50.214Z,286.88
2019-05-17T11:12:50.222Z,270.00
2019-05-17T11:13:52.890Z,247.50
2019-05-17T11:15:01.069Z,241.88
2019-05-17T11:15:50.244Z,230.63
2019-05-17T11:16:50.256Z,225.00
2019-05-17T11:17:50.260Z,225.00
2019-05-17T11:18:50.268Z,230.63
2019-05-17T11:19:50.278Z,247.50
2019-05-17T11:20:50.285Z,264.38
2019-05-17T11:21:50.307Z,270.00
2019-05-17T11:22:50.310Z,264.38
2019-05-17T11:23:50.313Z,241.88
2019-05-17T11:24:50.319Z,213.75
2019-05-17T11:25:50.328Z,196.88
2019-05-17T11:26:50.343Z,191.25
2019-05-17T11:27:50.352Z,191.25
2019-05-17T11:28:50.361Z,202.50
2019-05-17T11:29:50.372Z,213.75
2019-05-17T11:30:50.375Z,225.00
2019-05-17T11:31:50.386Z,225.00
2019-05-17T11:32:50.390Z,202.50
2019-05-17T11:33:50.406Z,174.38
2019-05-17T11:34:50.419Z,151.88
2019-05-17T11:35:50.426Z,135.00
2019-05-17T11:36:50.444Z,135.00
2019-05-17T11:37:50.435Z,135.00
2019-05-17T11:38:50.449Z,135.00
2019-05-17T11:39:50.454Z,135.00
2019-05-17T11:40:50.459Z,146.25
2019-05-17T11:41:50.478Z,163.13
2019-05-17T11:42:50.488Z,180.00
2019-05-17T11:43:50.493Z,196.88
2019-05-17T11:44:50.502Z,208.13
2019-05-17T11:45:50.501Z,208.13
2019-05-17T11:46:50.510Z,213.75
2019-05-17T11:47:50.537Z,219.38
2019-05-17T11:48:50.559Z,225.00
2019-05-17T11:49:50.544Z,219.38
2019-05-17T11:50:50.550Z,208.13
2019-05-17T11:51:50.566Z,202.50
2019-05-17T11:52:50.578Z,196.88
2019-05-17T11:53:50.587Z,208.13
2019-05-17T11:54:50.596Z,219.38
2019-05-17T11:55:50.773Z,230.63
2019-05-17T11:56:50.594Z,236.25
2019-05-17T11:57:50.616Z,219.38
2019-05-17T11:58:50.633Z,208.13
2019-05-17T11:59:50.623Z,208.13
2019-05-17T12:00:50.635Z,202.50
2019-05-17T12:01:50.647Z,202.50
2019-05-17T12:02:50.652Z,213.75
2019-05-17T12:03:50.664Z,219.38
2019-05-17T12:04:50.699Z,230.63
2019-05-17T12:05:50.672Z,230.63
2019-05-17T12:06:50.680Z,241.88
2019-05-17T12:07:50.689Z,264.38
2019-05-17T12:08:50.696Z,281.25
2019-05-17T12:09:50.701Z,292.50
2019-05-17T12:10:50.865Z,292.50
2019-05-17T12:11:50.728Z,292.50
2019-05-17T12:12:50.739Z,286.88
2019-05-17T12:13:50.746Z,292.50
2019-05-17T12:14:50.752Z,292.50
2019-05-17T12:15:50.767Z,315.00
2019-05-17T12:16:50.777Z,337.50
2019-05-17T12:17:50.771Z,376.88
2019-05-17T12:18:50.779Z,416.25
2019-05-17T12:19:50.797Z,461.25
2019-05-17T12:20:50.801Z,483.75
2019-05-17T12:21:50.813Z,506.25
2019-05-17T12:22:50.813Z,511.88
2019-05-17T12:23:50.929Z,528.75
2019-05-17T12:24:50.840Z,534.38
2019-05-17T12:25:50.853Z,540.00
2019-05-17T12:26:50.853Z,534.38
2019-05-17T12:27:50.861Z,523.13
2019-05-17T12:28:50.879Z,511.88
2019-05-17T12:29:50.892Z,500.63
2019-05-17T12:30:50.892Z,483.75
2019-05-17T12:31:50.897Z,489.38
2019-05-17T12:32:50.907Z,483.75
2019-05-17T12:33:50.908Z,466.88
2019-05-17T12:34:50.925Z,472.50
2019-05-17T12:35:50.940Z,466.88
2019-05-17T12:36:50.951Z,461.25
2019-05-17T12:37:50.959Z,461.25
2019-05-17T12:38:50.963Z,466.88
2019-05-17T12:39:50.977Z,472.50
2019-05-17T12:40:50.991Z,466.88
2019-05-17T12:41:51.022Z,466.88
2019-05-17T12:42:51.011Z,455.63
2019-05-17T12:43:51.022Z,455.63
2019-05-17T12:44:51.024Z,450.00
2019-05-17T12:46:00.007Z,455.63
2019-05-17T12:46:51.040Z,461.25
2019-05-17T12:47:51.063Z,450.00
2019-05-17T12:48:51.062Z,450.00
2019-05-17T12:49:51.087Z,450.00
2019-05-17T12:50:51.086Z,455.63
2019-05-17T12:51:51.095Z,450.00
2019-05-17T12:52:51.140Z,450.00
2019-05-17T12:53:51.115Z,450.00
2019-05-17T12:54:51.117Z,450.00
2019-05-17T12:55:51.131Z,461.25
2019-05-17T12:56:51.158Z,466.88
2019-05-17T12:57:51.144Z,461.25
2019-05-17T12:58:51.159Z,466.88
2019-05-17T12:59:51.165Z,478.13
2019-05-17T13:00:51.181Z,472.50
2019-05-17T13:01:51.203Z,478.13
2019-05-17T13:02:51.207Z,472.50
2019-05-17T13:03:51.222Z,472.50
2019-05-17T13:04:51.218Z,489.38
2019-05-17T13:05:51.263Z,489.38
2019-05-17T13:06:51.301Z,500.63
2019-05-17T13:07:51.260Z,517.50
2019-05-17T13:08:51.277Z,551.25
2019-05-17T13:09:51.274Z,562.50
2019-05-17T13:10:51.276Z,590.63
2019-05-17T13:11:51.281Z,618.75
2019-05-17T13:12:51.298Z,646.88
2019-05-17T13:13:51.365Z,697.50
2019-05-17T13:14:51.323Z,748.13
2019-05-17T13:15:51.336Z,793.13
2019-05-17T13:16:51.392Z,832.50
2019-05-17T13:17:51.355Z,871.88
2019-05-17T13:18:51.383Z,945.00
2019-05-17T13:19:51.377Z,1085.63
2019-05-17T13:20:51.387Z,1023.75
2019-05-17T13:21:51.390Z,1018.13
2019-05-17T13:22:51.427Z,1023.75
2019-05-17T13:23:51.419Z,933.75
2019-05-17T13:24:51.455Z,849.38
2019-05-17T13:25:51.451Z,793.13
2019-05-17T13:26:51.451Z,759.38
2019-05-17T13:27:51.488Z,753.75
2019-05-17T13:28:51.480Z,787.50
2019-05-17T13:29:51.669Z,798.75
2019-05-17T13:30:51.513Z,810.00
2019-05-17T13:31:51.591Z,832.50
2019-05-17T13:32:51.544Z,888.75
2019-05-17T13:33:51.562Z,1063.13
2019-05-17T13:34:51.547Z,973.13
2019-05-17T13:35:51.572Z,984.38
2019-05-17T13:36:51.623Z,973.13
2019-05-17T13:37:51.597Z,1001.25
2019-05-17T13:38:51.612Z,916.88
2019-05-17T13:39:51.628Z,888.75
2019-05-17T13:40:51.635Z,911.25
2019-05-17T13:41:51.640Z,990.00
2019-05-17T13:42:51.667Z,1012.50
2019-05-17T13:43:51.669Z,1158.75
2019-05-17T13:44:51.680Z,1074.38
2019-05-17T13:45:51.697Z,1192.50
2019-05-17T13:46:51.703Z,1158.75
2019-05-17T13:47:51.714Z,1192.50
2019-05-17T13:48:51.737Z,1299.38
2019-05-17T13:49:51.748Z,1327.50
2019-05-17T13:50:52.304Z,1153.13
2019-05-17T13:51:51.776Z,1001.25
2019-05-17T13:52:51.794Z,894.38
2019-05-17T13:53:51.794Z,905.63
2019-05-17T13:54:51.819Z,883.13
2019-05-17T13:55:51.835Z,894.38
2019-05-17T13:56:51.859Z,826.88
2019-05-17T13:57:51.869Z,990.00
2019-05-17T13:58:51.875Z,1153.13
2019-05-17T13:59:51.883Z,877.50
2019-05-17T14:00:51.950Z,838.13
2019-05-17T14:01:51.933Z,973.13
2019-05-17T14:02:51.921Z,748.13
2019-05-17T14:03:51.984Z,765.00
2019-05-17T14:04:51.975Z,871.88
2019-05-17T14:05:51.985Z,545.63
2019-05-17T14:06:51.989Z,399.38
2019-05-17T14:07:52.007Z,343.13
2019-05-17T14:08:52.017Z,320.63
2019-05-17T14:09:52.027Z,298.13